Magnolia, MS

1:44 AM CDT on August 02, 2014 (GMT -0500)
McComb-Pike County-Lewis (KMCB) Elev 410 ft | 31.18 °N, 90.47 °W | Change Station

Current weather conditions updated 51 minutes ago

Overcast
Overcast
72 °F
Feels Like 72 °F
N
5
Wind Variable Wind from ESE

Today is forecast to be Much Warmer than yesterday. Afternoon showers and thunderstorms.

Today
High -- | Low -- °F
--% Chance of Precip.
Yesterday
High -- | Low -- °F
Precip. -- in
6:19 AM 7:56 PM
Waxing Crescent, 33% visible
Pressure 29.99 in
Visibility 6.0 miles
Clouds Overcast 9000 ft
Dew Point 70 °F
Humidity 93%
Rainfall 0.00 in
Snow Depth Not available.
UV 0 out of 12
Pollen 1.90 out of 12
Air Quality Not available.
Flu Activity Not available.
METAR KMCB 020553Z AUTO 11004KT 6SM BR OVC090 22/21 A3000 RMK AO2 SLP153 60000 T02220211 10233 20222 402390211 50003

More Conditions Fewer Conditions

Pressure 29.99 in
Visibility 6.0 miles
Clouds Overcast 9000 ft
Dew Point 70 °F
Humidity 93%
Rainfall 0.00 in
Snow Depth Not available.
UV 0 out of 12
Pollen 1.90 out of 12
Air Quality Not available.
Flu Activity Not available.
METAR KMCB 020553Z AUTO 11004KT 6SM BR OVC090 22/21 A3000 RMK AO2 SLP153 60000 T02220211 10233 20222 402390211 50003

More Conditions Fewer Conditions

10-Day Weather Forecast

Almanac

Astronomy

Aug. 02, 2014 Rise Set
Actual Time 6:19 AM CDT 7:56 PM CDT
Civil Twilight 5:53 AM CDT 8:22 PM CDT
Nautical Twilight 5:21 AM CDT 8:54 PM CDT
Astronomical Twilight 4:48 AM CDT 9:27 PM CDT
Moon 12:13 PM CDT 11:44 PM CDT
Length of Visible Light 14h 29m
Length of Day
13h 36m
Tomorrow will be 1m 26s shorter.
Waxing Crescent, 33% of the Moon is Illuminated
Today
Waxing Crescent
Aug 3
First Quarter
Aug 10
Full
Aug 17
Last Quarter
Aug 25
New

Today's Extremes

State Highs State Lows

Community

WunderPhotos

Upload Photos

1,739,830 photos uploaded!

Nearby

Snow Depth

Station Depth Elevation
No new snow has been reported.

Earthquake Activity

City Distance Mag. Time & Date
No recent earthquake activity has been reported nearby.
Minimum magnitude displayed is 2.5.

Coastal Water Temperatures

Place Temperature
No Stations Reporting

Nearby Weather Stations

Station Location Temp. Dew Point Humidity Wind Precip. Elev Updated Type
Pinehurst, McComb, MS 70.9 °F 70 °F 98% East  at  0.0 mph 0.00 in / hr 442 ft 1:43 AM CDT Normal
City of McComb, McComb, MS 71.2 °F 70 °F 95% NE  at  0.0 mph 0.00 in / hr 456 ft 1:44 AM CDT Rapid Fire
Laurel St., Summit, MS 71.3 °F 70 °F 94% NNE  at  0.0 mph 0.00 in / hr 465 ft 1:38 AM CDT Normal
Smithburg Rd, Progress, MS 71.3 °F 71 °F 98% NNE  at  1.0 mph 0.00 in / hr 300 ft 1:40 AM CDT Normal
Hwy 1053, Kentwood, LA 72.5 °F 71 °F 96% East  at  1.0 mph 0.00 in / hr 226 ft 1:31 AM CDT Normal

Show More Stations Show Fewer Stations